createdAt,value
2023-04-24T00:01:59.323Z,6.95
2023-04-24T00:04:28.992Z,6.78
2023-04-24T00:06:58.343Z,6.03
2023-04-24T00:09:27.033Z,7.07
2023-04-24T00:11:55.873Z,6.25
2023-04-24T00:14:24.018Z,5.90
2023-04-24T00:16:52.768Z,4.50
2023-04-24T00:19:22.429Z,5.57
2023-04-24T00:21:52.551Z,5.65
2023-04-24T00:24:20.684Z,4.53
2023-04-24T00:26:48.979Z,5.88
2023-04-24T00:29:17.280Z,4.75
2023-04-24T00:31:45.503Z,5.75
2023-04-24T00:34:13.760Z,6.47
2023-04-24T00:36:42.253Z,5.95
2023-04-24T00:39:11.629Z,5.07
2023-04-24T00:41:39.863Z,6.00
2023-04-24T00:44:08.388Z,5.95
2023-04-24T00:46:38.225Z,7.55
2023-04-24T00:49:07.120Z,8.02
2023-04-24T00:51:35.543Z,6.20
2023-04-24T00:54:03.753Z,5.80
2023-04-24T00:56:33.356Z,6.35
2023-04-24T00:59:02.026Z,7.18
2023-04-24T01:01:31.399Z,5.88
2023-04-24T01:04:00.513Z,6.65
2023-04-24T01:06:32.265Z,6.05
2023-04-24T01:09:01.420Z,6.43
2023-04-24T01:11:33.069Z,6.18
2023-04-24T01:14:02.248Z,7.60
2023-04-24T01:16:30.419Z,7.18
2023-04-24T01:18:59.043Z,7.20
2023-04-24T01:21:29.824Z,6.88
2023-04-24T01:24:00.446Z,7.28
2023-04-24T01:26:28.834Z,7.75
2023-04-24T01:28:57.794Z,8.00
2023-04-24T01:31:26.443Z,8.30
2023-04-24T01:33:54.927Z,7.93
2023-04-24T01:36:26.557Z,9.10
2023-04-24T01:38:56.045Z,8.07
2023-04-24T01:41:25.947Z,7.88
2023-04-24T01:43:54.522Z,8.23
2023-04-24T01:46:22.751Z,7.78
2023-04-24T01:48:51.300Z,8.35
2023-04-24T01:51:21.465Z,8.10
2023-04-24T01:53:49.990Z,8.80
2023-04-24T01:56:18.201Z,9.07
2023-04-24T01:58:47.973Z,9.13
2023-04-24T02:01:19.970Z,8.90
2023-04-24T02:03:49.859Z,8.05
2023-04-24T02:06:18.116Z,10.13
2023-04-24T02:08:46.385Z,8.20
2023-04-24T02:11:14.601Z,10.00
2023-04-24T02:13:42.714Z,10.35
2023-04-24T02:16:12.531Z,9.75
2023-04-24T02:18:40.857Z,10.48
2023-04-24T02:21:09.074Z,10.15
2023-04-24T02:23:37.268Z,9.05
2023-04-24T02:26:07.056Z,8.85
2023-04-24T02:28:35.411Z,8.63
2023-04-24T02:31:03.431Z,9.75
2023-04-24T02:33:33.067Z,9.05
2023-04-24T02:36:01.666Z,7.63
2023-04-24T02:38:29.812Z,7.57
2023-04-24T02:40:58.080Z,7.63
2023-04-24T02:43:28.100Z,7.88
2023-04-24T02:45:56.400Z,7.57
2023-04-24T02:48:24.743Z,7.55
2023-04-24T02:50:54.495Z,7.68
2023-04-24T02:53:22.769Z,7.65
2023-04-24T02:55:50.915Z,7.85
2023-04-24T02:58:21.010Z,7.53
2023-04-24T03:00:49.346Z,7.78
2023-04-24T03:03:17.866Z,5.95
2023-04-24T03:05:46.855Z,6.07
2023-04-24T03:08:18.000Z,6.72
2023-04-24T03:10:48.186Z,6.15
2023-04-24T03:13:17.913Z,6.25
2023-04-24T03:15:47.592Z,7.35
2023-04-24T03:18:15.930Z,6.32
2023-04-24T03:20:47.470Z,6.72
2023-04-24T03:23:17.552Z,6.55
2023-04-24T03:25:46.397Z,7.53
2023-04-24T03:28:15.003Z,7.10
2023-04-24T03:30:51.107Z,8.82
2023-04-24T03:33:20.313Z,10.57
2023-04-24T03:35:58.213Z,9.05
2023-04-24T03:38:28.436Z,8.80
2023-04-24T03:41:03.084Z,8.95
2023-04-24T03:43:38.048Z,9.60
2023-04-24T03:46:08.202Z,10.18
2023-04-24T03:48:40.255Z,10.02
2023-04-24T03:51:10.868Z,9.90
2023-04-24T03:53:42.912Z,10.68
2023-04-24T03:56:13.165Z,9.60
2023-04-24T03:58:42.547Z,9.20
2023-04-24T04:01:12.729Z,10.80
2023-04-24T04:03:56.727Z,12.60
2023-04-24T04:06:28.107Z,14.07
2023-04-24T04:08:58.999Z,15.80
2023-04-24T04:11:27.649Z,13.55
2023-04-24T04:13:55.810Z,15.60
2023-04-24T04:16:24.353Z,17.17
2023-04-24T04:18:58.357Z,16.55
2023-04-24T04:21:28.234Z,17.17
2023-04-24T04:24:09.659Z,18.38
2023-04-24T04:26:48.289Z,19.33
2023-04-24T04:29:27.422Z,16.88
2023-04-24T04:31:56.379Z,18.25
2023-04-24T04:34:25.528Z,14.98
2023-04-24T04:36:53.876Z,15.88
2023-04-24T04:39:37.762Z,15.75
2023-04-24T04:42:09.171Z,14.98
2023-04-24T04:44:42.096Z,15.63
2023-04-24T04:47:14.590Z,16.48
2023-04-24T04:49:44.505Z,15.57
2023-04-24T04:52:21.068Z,15.65
2023-04-24T04:54:55.780Z,14.63
2023-04-24T04:57:29.561Z,15.05
2023-04-24T04:59:58.047Z,14.60
2023-04-24T05:02:39.253Z,14.70
2023-04-24T05:05:09.946Z,14.77
2023-04-24T05:07:38.403Z,14.40
2023-04-24T05:10:09.864Z,14.07
2023-04-24T05:12:38.140Z,14.90
2023-04-24T05:15:07.229Z,13.50
2023-04-24T05:17:35.872Z,13.82
2023-04-24T05:20:06.476Z,13.98
2023-04-24T05:22:35.528Z,13.80
2023-04-24T05:25:04.800Z,13.40
2023-04-24T05:27:46.885Z,14.38
2023-04-24T05:30:17.536Z,12.65
2023-04-24T05:32:45.796Z,11.57
2023-04-24T05:35:15.033Z,12.18
2023-04-24T05:37:43.223Z,10.52
2023-04-24T05:40:13.116Z,12.00
2023-04-24T05:42:41.484Z,11.32
2023-04-24T05:45:17.385Z,11.57
2023-04-24T05:47:46.142Z,11.35
2023-04-24T05:50:14.774Z,11.02
2023-04-24T05:52:43.096Z,11.10
2023-04-24T05:55:24.331Z,11.52
2023-04-24T05:57:53.331Z,11.25
2023-04-24T06:00:23.815Z,9.75
2023-04-24T06:03:00.692Z,10.23
2023-04-24T06:05:29.550Z,9.90
2023-04-24T06:07:57.853Z,11.30
2023-04-24T06:10:29.536Z,9.60
2023-04-24T06:13:01.379Z,12.15
2023-04-24T06:15:33.099Z,9.60
2023-04-24T06:18:13.799Z,10.50
2023-04-24T06:20:43.579Z,9.73
2023-04-24T06:23:11.846Z,8.13
2023-04-24T06:25:40.792Z,9.73
2023-04-24T06:28:08.941Z,8.77
2023-04-24T06:30:38.821Z,7.85
2023-04-24T06:33:19.417Z,8.35
2023-04-24T06:35:49.085Z,8.77
2023-04-24T06:38:17.618Z,7.85
2023-04-24T06:40:45.995Z,8.20
2023-04-24T06:43:15.973Z,7.57
2023-04-24T06:45:46.377Z,7.70
2023-04-24T06:48:14.690Z,7.97
2023-04-24T06:50:42.945Z,7.28
2023-04-24T06:53:13.881Z,7.78
2023-04-24T06:55:43.011Z,6.85
2023-04-24T06:58:11.864Z,7.13
2023-04-24T07:00:40.229Z,5.85
2023-04-24T07:03:10.155Z,6.30
2023-04-24T07:05:39.326Z,5.93
2023-04-24T07:08:07.900Z,6.38
2023-04-24T07:10:36.820Z,6.15
2023-04-24T07:13:05.221Z,6.50
2023-04-24T07:15:33.759Z,6.32
2023-04-24T07:18:04.864Z,6.00
2023-04-24T07:20:35.772Z,5.18
2023-04-24T07:23:04.646Z,5.38
2023-04-24T07:25:32.993Z,5.60
2023-04-24T07:28:01.486Z,4.85
2023-04-24T07:30:30.452Z,5.25
2023-04-24T07:32:59.987Z,5.65
2023-04-24T07:35:28.351Z,5.32
2023-04-24T07:37:58.494Z,4.35
2023-04-24T07:40:26.818Z,3.22
2023-04-24T07:42:54.864Z,4.10
2023-04-24T07:45:24.175Z,3.22
2023-04-24T07:47:53.104Z,2.72
2023-04-24T07:50:22.092Z,2.72
2023-04-24T07:52:50.510Z,2.90
2023-04-24T07:55:22.844Z,4.10
2023-04-24T07:57:53.314Z,5.10
2023-04-24T08:00:22.045Z,5.40
2023-04-24T08:02:50.670Z,5.70
2023-04-24T08:05:19.316Z,6.15
2023-04-24T08:07:49.770Z,6.50
2023-04-24T08:10:18.196Z,6.32
2023-04-24T08:12:48.078Z,6.88
2023-04-24T08:15:16.951Z,6.75
2023-04-24T08:17:45.350Z,6.18
2023-04-24T08:20:14.797Z,6.13
2023-04-24T08:22:43.670Z,5.75
2023-04-24T08:25:12.921Z,5.50
2023-04-24T08:27:41.430Z,4.90
2023-04-24T08:30:11.941Z,5.70
2023-04-24T08:32:40.208Z,5.95
2023-04-24T08:35:10.776Z,5.13
2023-04-24T08:37:39.176Z,5.75
2023-04-24T08:40:14.157Z,4.60
2023-04-24T08:42:44.374Z,4.85
2023-04-24T08:45:15.604Z,4.93
2023-04-24T08:47:45.542Z,3.65
2023-04-24T08:50:13.914Z,4.35
2023-04-24T08:52:44.149Z,4.90
2023-04-24T08:55:12.238Z,3.83
2023-04-24T08:57:42.307Z,4.65
2023-04-24T09:00:12.338Z,4.72
2023-04-24T09:02:45.720Z,4.45
2023-04-24T09:05:15.516Z,3.85
2023-04-24T09:07:47.115Z,4.45
2023-04-24T09:10:16.196Z,3.97
2023-04-24T09:12:44.519Z,4.30
2023-04-24T09:15:13.775Z,4.00
2023-04-24T09:17:43.823Z,3.67
2023-04-24T09:20:12.869Z,4.78
2023-04-24T09:22:41.855Z,3.13
2023-04-24T09:25:13.559Z,4.00
2023-04-24T09:27:47.100Z,3.92
2023-04-24T09:30:16.549Z,3.30
2023-04-24T09:32:46.147Z,2.63
2023-04-24T09:35:16.116Z,2.50
2023-04-24T09:37:45.939Z,3.70
2023-04-24T09:40:16.853Z,2.83
2023-04-24T09:42:49.048Z,2.90
2023-04-24T09:45:17.354Z,3.95
2023-04-24T09:47:46.926Z,2.47
2023-04-24T09:50:17.161Z,2.88
2023-04-24T09:52:48.533Z,2.78
2023-04-24T09:55:20.037Z,2.63
2023-04-24T09:57:55.990Z,2.35
2023-04-24T10:00:26.347Z,2.00
2023-04-24T10:03:01.771Z,1.80
2023-04-24T10:05:31.293Z,1.60
2023-04-24T10:08:02.825Z,2.50
2023-04-24T10:10:31.348Z,2.45
2023-04-24T10:13:00.215Z,2.45
2023-04-24T10:15:29.292Z,2.00
2023-04-24T10:18:01.828Z,2.60
2023-04-24T10:20:32.402Z,2.55
2023-04-24T10:23:02.542Z,3.28
2023-04-24T10:25:32.886Z,2.70
2023-04-24T10:28:02.210Z,2.50
2023-04-24T10:30:35.964Z,2.83
2023-04-24T10:33:07.300Z,2.28
2023-04-24T10:35:39.870Z,2.95
2023-04-24T10:38:11.314Z,2.25
2023-04-24T10:40:39.879Z,2.95
2023-04-24T10:43:12.140Z,3.00
2023-04-24T10:45:41.064Z,3.10
2023-04-24T10:48:15.133Z,3.28
2023-04-24T10:50:48.864Z,4.30
2023-04-24T10:53:19.698Z,5.38
2023-04-24T10:55:50.431Z,4.15
2023-04-24T10:58:24.348Z,5.25
2023-04-24T11:00:59.416Z,5.15
2023-04-24T11:03:31.028Z,5.53
2023-04-24T11:06:01.978Z,5.22
2023-04-24T11:08:32.722Z,5.07
2023-04-24T11:11:06.461Z,5.82
2023-04-24T11:14:10.799Z,5.40
2023-04-24T11:16:46.753Z,6.03
2023-04-24T11:19:25.894Z,7.10
2023-04-24T11:22:00.813Z,5.93
2023-04-24T11:24:34.406Z,6.65
2023-04-24T11:27:14.971Z,6.70
2023-04-24T11:29:45.545Z,5.10
2023-04-24T11:32:21.324Z,6.40
2023-04-24T11:34:53.214Z,5.40
2023-04-24T11:37:21.697Z,5.25
2023-04-24T11:39:54.161Z,4.10
2023-04-24T11:42:24.080Z,4.80
2023-04-24T11:44:55.021Z,4.15
2023-04-24T11:47:30.227Z,4.95
2023-04-24T11:50:01.655Z,5.57
2023-04-24T11:52:31.208Z,4.75
2023-04-24T11:55:00.374Z,4.38
2023-04-24T11:57:34.655Z,4.50
2023-04-24T12:00:04.586Z,4.97
2023-04-24T12:02:41.041Z,4.68
2023-04-24T12:05:13.262Z,4.30
2023-04-24T12:07:44.807Z,4.70
2023-04-24T12:10:13.673Z,4.88
2023-04-24T12:12:41.783Z,4.05
2023-04-24T12:15:11.177Z,3.80
2023-04-24T12:17:44.398Z,3.38
2023-04-24T12:20:15.948Z,3.03
2023-04-24T12:22:48.537Z,4.38
2023-04-24T12:25:19.026Z,3.45
2023-04-24T12:27:48.264Z,3.40
2023-04-24T12:30:18.416Z,3.20
2023-04-24T12:32:48.954Z,3.10
2023-04-24T12:35:23.527Z,2.85
2023-04-24T12:37:51.948Z,2.35
2023-04-24T12:40:22.168Z,2.90
2023-04-24T12:42:51.588Z,2.30
2023-04-24T12:45:21.079Z,2.47
2023-04-24T12:47:50.949Z,3.33
2023-04-24T12:50:19.307Z,1.90
2023-04-24T12:52:49.003Z,2.45
2023-04-24T12:55:17.313Z,2.33
2023-04-24T12:57:45.685Z,2.45
2023-04-24T13:00:15.050Z,2.15
2023-04-24T13:02:43.480Z,2.28
2023-04-24T13:05:12.795Z,2.10
2023-04-24T13:07:41.143Z,2.28
2023-04-24T13:10:12.264Z,3.25
2023-04-24T13:12:41.294Z,2.55
2023-04-24T13:15:10.259Z,2.75
2023-04-24T13:17:39.016Z,3.00
2023-04-24T13:20:08.262Z,3.50
2023-04-24T13:22:36.449Z,3.00
2023-04-24T13:25:07.315Z,2.75
2023-04-24T13:27:37.070Z,3.10
2023-04-24T13:30:05.969Z,3.20
2023-04-24T13:32:36.443Z,3.85
2023-04-24T13:35:05.590Z,3.10
2023-04-24T13:37:34.356Z,2.75
2023-04-24T13:40:02.914Z,2.97
2023-04-24T13:42:31.199Z,1.00
2023-04-24T13:45:06.079Z,1.40
2023-04-24T13:47:42.972Z,3.22
2023-04-24T13:51:25.747Z,1.70
2023-04-24T13:54:19.831Z,1.00
2023-04-24T13:56:48.484Z,1.65
2023-04-24T13:59:16.742Z,1.27
2023-04-24T14:01:47.159Z,1.60
2023-04-24T14:04:15.701Z,2.20
2023-04-24T14:06:44.070Z,2.35
2023-04-24T14:09:12.446Z,2.50
2023-04-24T14:11:40.648Z,2.85
2023-04-24T14:14:09.052Z,2.70
2023-04-24T14:16:37.402Z,2.67
2023-04-24T14:19:07.382Z,2.03
2023-04-24T14:21:35.815Z,3.10
2023-04-24T14:24:04.875Z,2.10
2023-04-24T14:26:33.248Z,2.10
2023-04-24T14:29:11.471Z,2.55
2023-04-24T14:31:43.569Z,2.65
2023-04-24T14:34:16.220Z,3.15
2023-04-24T14:36:44.663Z,3.05
2023-04-24T14:39:13.342Z,2.80
2023-04-24T14:41:41.413Z,2.10
2023-04-24T14:44:09.583Z,2.80
2023-04-24T14:46:38.401Z,2.50
2023-04-24T14:49:06.718Z,2.40
2023-04-24T14:51:36.172Z,2.65
2023-04-24T14:54:04.688Z,3.10
2023-04-24T14:56:33.687Z,3.15
2023-04-24T14:59:02.002Z,3.35
2023-04-24T15:01:30.426Z,3.00
2023-04-24T15:03:58.652Z,3.15
2023-04-24T15:06:26.852Z,2.55
2023-04-24T15:08:56.883Z,3.17
2023-04-24T15:11:25.082Z,2.60
2023-04-24T15:13:53.556Z,2.30
2023-04-24T15:16:21.915Z,2.70
2023-04-24T15:18:50.011Z,2.00
2023-04-24T15:21:18.310Z,1.83
2023-04-24T15:23:46.699Z,2.35
2023-04-24T15:26:16.769Z,1.67
2023-04-24T15:28:45.261Z,1.70
2023-04-24T15:31:13.653Z,2.10
2023-04-24T15:33:41.835Z,1.70
2023-04-24T15:36:10.439Z,1.80
2023-04-24T15:38:39.173Z,2.30
2023-04-24T15:41:07.629Z,1.70
2023-04-24T15:43:40.152Z,1.92
2023-04-24T15:46:09.704Z,1.83
2023-04-24T15:48:39.985Z,1.55
2023-04-24T15:51:08.534Z,1.55
2023-04-24T15:53:36.709Z,3.10
2023-04-24T15:56:05.564Z,1.30
2023-04-24T15:58:33.886Z,1.50
2023-04-24T16:01:03.897Z,1.65
2023-04-24T16:03:33.311Z,1.40
2023-04-24T16:06:02.345Z,1.60
2023-04-24T16:08:30.459Z,1.10
2023-04-24T16:10:58.962Z,1.38
2023-04-24T16:13:29.157Z,1.50
2023-04-24T16:15:57.511Z,1.77
2023-04-24T16:18:27.185Z,1.52
2023-04-24T16:20:55.332Z,2.60
2023-04-24T16:23:23.853Z,1.88
2023-04-24T16:25:52.200Z,1.00
2023-04-24T16:28:20.435Z,1.90
2023-04-24T16:30:48.581Z,1.63
2023-04-24T16:33:16.710Z,1.60
2023-04-24T16:35:46.815Z,1.60
2023-04-24T16:38:15.146Z,1.40
2023-04-24T16:40:43.461Z,1.70
2023-04-24T16:43:11.517Z,1.45
2023-04-24T16:45:39.780Z,2.08
2023-04-24T16:48:11.181Z,1.83
2023-04-24T16:50:39.899Z,1.60
2023-04-24T16:53:09.429Z,2.03
2023-04-24T16:55:39.116Z,1.52
2023-04-24T16:58:11.294Z,2.25
2023-04-24T17:00:39.630Z,1.80
2023-04-24T17:03:09.785Z,2.08
2023-04-24T17:05:39.480Z,1.33
2023-04-24T17:08:09.498Z,1.40
2023-04-24T17:10:37.797Z,1.50
2023-04-24T17:13:05.844Z,1.20
2023-04-24T17:15:34.456Z,1.65
2023-04-24T17:18:03.080Z,1.42
2023-04-24T17:20:31.745Z,1.88
2023-04-24T17:22:59.790Z,1.83
2023-04-24T17:25:29.859Z,2.08
2023-04-24T17:27:58.040Z,1.55
2023-04-24T17:30:26.490Z,2.17
2023-04-24T17:32:54.829Z,1.50
2023-04-24T17:35:23.091Z,1.73
2023-04-24T17:37:51.311Z,1.88
2023-04-24T17:40:19.469Z,1.83
2023-04-24T17:42:49.230Z,1.33
2023-04-24T17:45:17.483Z,2.10
2023-04-24T17:47:45.670Z,1.50
2023-04-24T17:50:14.315Z,1.77
2023-04-24T17:52:42.454Z,2.38
2023-04-24T17:55:11.119Z,1.67
2023-04-24T17:57:39.408Z,1.90
2023-04-24T18:00:10.578Z,1.90
2023-04-24T18:02:38.955Z,2.55
2023-04-24T18:05:07.551Z,2.13
2023-04-24T18:07:36.141Z,2.00
2023-04-24T18:10:04.254Z,2.10
2023-04-24T18:12:32.523Z,1.70
2023-04-24T18:15:13.233Z,1.83
2023-04-24T18:17:43.922Z,1.85
2023-04-24T18:20:12.955Z,1.98
2023-04-24T18:22:41.917Z,2.33
2023-04-24T18:25:11.339Z,1.90
2023-04-24T18:27:40.595Z,2.13
2023-04-24T18:30:14.155Z,1.42
2023-04-24T18:32:43.892Z,1.70
2023-04-24T18:35:12.148Z,1.95
2023-04-24T18:37:40.685Z,1.38
2023-04-24T18:40:10.385Z,1.00
2023-04-24T18:42:38.628Z,1.00
2023-04-24T18:45:07.901Z,1.48
2023-04-24T18:47:36.824Z,1.63
2023-04-24T18:50:07.499Z,1.40
2023-04-24T18:52:35.737Z,1.30
2023-04-24T18:55:06.703Z,1.20
2023-04-24T18:57:35.399Z,1.55
2023-04-24T19:00:04.607Z,2.17
2023-04-24T19:02:35.023Z,1.48
2023-04-24T19:05:03.492Z,1.90
2023-04-24T19:07:34.306Z,1.50
2023-04-24T19:10:02.916Z,1.50
2023-04-24T19:12:31.156Z,1.55
2023-04-24T19:15:00.230Z,2.05
2023-04-24T19:17:28.363Z,1.63
2023-04-24T19:19:56.718Z,1.73
2023-04-24T19:22:25.720Z,1.45
2023-04-24T19:24:55.237Z,1.10
2023-04-24T19:27:23.306Z,1.40
2023-04-24T19:29:52.157Z,1.65
2023-04-24T19:32:20.776Z,0.90
2023-04-24T19:34:48.968Z,1.50
2023-04-24T19:37:17.242Z,1.50
2023-04-24T19:39:45.400Z,1.20
2023-04-24T19:42:14.900Z,0.90
2023-04-24T19:44:43.332Z,1.35
2023-04-24T19:47:13.117Z,0.52
2023-04-24T19:49:41.684Z,1.20
2023-04-24T19:52:09.871Z,1.20
2023-04-24T19:54:37.971Z,1.30
2023-04-24T19:57:06.749Z,1.20
2023-04-24T19:59:36.763Z,0.98
2023-04-24T20:02:05.281Z,1.00
2023-04-24T20:04:33.597Z,1.23
2023-04-24T20:07:02.186Z,1.40
2023-04-24T20:09:32.961Z,1.27
2023-04-24T20:12:01.689Z,1.58
2023-04-24T20:14:29.789Z,1.15
2023-04-24T20:16:59.558Z,1.10
2023-04-24T20:19:27.695Z,1.20
2023-04-24T20:21:56.105Z,1.13
2023-04-24T20:24:24.378Z,1.50
2023-04-24T20:26:52.444Z,1.50
2023-04-24T20:29:20.493Z,1.58
2023-04-24T20:31:48.639Z,1.33
2023-04-24T20:34:18.292Z,1.25
2023-04-24T20:36:49.566Z,1.73
2023-04-24T20:39:18.109Z,1.80
2023-04-24T20:41:47.600Z,1.58
2023-04-24T20:44:15.792Z,1.48
2023-04-24T20:46:44.178Z,1.40
2023-04-24T20:49:12.332Z,1.92
2023-04-24T20:51:41.778Z,1.35
2023-04-24T20:54:09.896Z,2.05
2023-04-24T20:56:38.056Z,1.65
2023-04-24T20:59:07.117Z,1.70
2023-04-24T21:01:35.281Z,1.17
2023-04-24T21:04:03.812Z,1.30
2023-04-24T21:06:33.698Z,1.60
2023-04-24T21:09:03.366Z,1.63
2023-04-24T21:11:31.942Z,2.28
2023-04-24T21:14:00.214Z,1.40
2023-04-24T21:16:29.030Z,1.95
2023-04-24T21:18:57.214Z,1.83
2023-04-24T21:21:25.554Z,3.33
2023-04-24T21:23:53.927Z,2.03
2023-04-24T21:26:23.811Z,1.50
2023-04-24T21:28:52.651Z,2.28
2023-04-24T21:31:20.887Z,2.50
2023-04-24T21:33:49.882Z,2.25
2023-04-24T21:36:18.575Z,3.03
2023-04-24T21:38:46.778Z,2.00
2023-04-24T21:41:15.025Z,2.30
2023-04-24T21:43:46.228Z,2.05
2023-04-24T21:46:15.547Z,2.65
2023-04-24T21:48:43.773Z,2.70
2023-04-24T21:51:13.037Z,2.45
2023-04-24T21:53:41.532Z,2.55
2023-04-24T21:56:09.697Z,2.80
2023-04-24T21:58:38.921Z,1.95
2023-04-24T22:01:08.699Z,2.67
2023-04-24T22:03:36.992Z,2.97
2023-04-24T22:06:05.771Z,3.30
2023-04-24T22:08:34.054Z,3.25
2023-04-24T22:11:02.246Z,3.50
2023-04-24T22:13:30.756Z,2.75
2023-04-24T22:15:59.134Z,2.85
2023-04-24T22:18:46.057Z,2.67
2023-04-24T22:21:15.593Z,2.42
2023-04-24T22:23:44.076Z,2.65
2023-04-24T22:26:12.339Z,2.53
2023-04-24T22:28:40.508Z,2.95
2023-04-24T22:31:09.222Z,2.80
2023-04-24T22:33:39.079Z,3.97
2023-04-24T22:36:07.923Z,3.90
2023-04-24T22:38:35.968Z,3.15
2023-04-24T22:41:04.233Z,3.08
2023-04-24T22:43:32.587Z,4.05
2023-04-24T22:46:00.888Z,3.65
2023-04-24T22:48:29.410Z,3.15
2023-04-24T22:50:58.914Z,4.05
2023-04-24T22:53:27.770Z,2.80
2023-04-24T22:55:56.322Z,3.72
2023-04-24T22:58:25.767Z,3.65
2023-04-24T23:00:53.975Z,3.05
2023-04-24T23:03:22.305Z,3.07
2023-04-24T23:05:50.680Z,3.28
2023-04-24T23:08:20.253Z,3.33
2023-04-24T23:10:48.925Z,3.13
2023-04-24T23:13:17.317Z,3.50
2023-04-24T23:15:46.153Z,3.05
2023-04-24T23:18:14.215Z,4.40
2023-04-24T23:20:42.408Z,3.28
2023-04-24T23:23:10.383Z,3.05
2023-04-24T23:25:40.051Z,3.40
2023-04-24T23:28:08.117Z,3.78
2023-04-24T23:30:36.397Z,3.92
2023-04-24T23:33:04.925Z,3.35
2023-04-24T23:35:33.275Z,2.55
2023-04-24T23:38:01.687Z,4.03
2023-04-24T23:40:29.900Z,2.97
2023-04-24T23:43:06.904Z,3.22
2023-04-24T23:45:37.117Z,4.10
2023-04-24T23:48:06.107Z,3.92
2023-04-24T23:50:34.509Z,3.60
2023-04-24T23:53:02.871Z,3.45
2023-04-24T23:55:31.102Z,3.78
2023-04-24T23:58:00.538Z,3.38
